createdAt,value
2022-10-16T00:01:26.155Z,14.10
2022-10-16T00:03:53.184Z,14.43
2022-10-16T00:06:22.248Z,14.90
2022-10-16T00:08:50.052Z,14.70
2022-10-16T00:11:28.071Z,13.20
2022-10-16T00:14:00.819Z,12.75
2022-10-16T00:16:28.829Z,15.27
2022-10-16T00:18:56.014Z,15.25
2022-10-16T00:21:25.710Z,16.85
2022-10-16T00:23:54.333Z,15.60
2022-10-16T00:26:21.770Z,14.32
2022-10-16T00:28:50.302Z,15.10
2022-10-16T00:31:19.358Z,16.33
2022-10-16T00:33:46.307Z,15.23
2022-10-16T00:36:15.851Z,14.98
2022-10-16T00:38:43.560Z,15.60
2022-10-16T00:41:18.137Z,17.52
2022-10-16T00:43:47.741Z,18.15
2022-10-16T00:46:22.189Z,15.60
2022-10-16T00:48:58.441Z,15.25
2022-10-16T00:51:39.742Z,16.80
2022-10-16T00:54:12.687Z,16.15
2022-10-16T00:56:39.663Z,17.83
2022-10-16T00:59:15.094Z,16.08
2022-10-16T01:01:41.947Z,15.57
2022-10-16T01:04:08.769Z,15.00
2022-10-16T01:07:01.793Z,15.40
2022-10-16T01:09:51.764Z,16.50
2022-10-16T01:12:41.224Z,16.40
2022-10-16T01:15:18.549Z,16.80
2022-10-16T01:17:48.582Z,17.05
2022-10-16T01:20:35.402Z,17.83
2022-10-16T01:23:17.561Z,18.35
2022-10-16T01:26:14.639Z,16.13
2022-10-16T01:29:01.767Z,16.10
2022-10-16T01:31:34.979Z,18.73
2022-10-16T01:34:07.318Z,19.75
2022-10-16T01:36:42.900Z,19.20
2022-10-16T01:39:11.946Z,18.45
2022-10-16T01:41:45.723Z,17.67
2022-10-16T01:44:26.145Z,18.15
2022-10-16T01:46:54.860Z,18.75
2022-10-16T01:49:24.921Z,19.13
2022-10-16T01:51:56.594Z,18.95
2022-10-16T01:54:26.838Z,19.25
2022-10-16T01:56:57.295Z,18.10
2022-10-16T01:59:26.972Z,16.77
2022-10-16T02:01:57.578Z,17.92
2022-10-16T02:04:35.346Z,18.00
2022-10-16T02:07:02.194Z,16.95
2022-10-16T02:09:31.664Z,14.38
2022-10-16T02:12:03.517Z,16.27
2022-10-16T02:14:30.590Z,15.43
2022-10-16T02:16:57.463Z,15.60
2022-10-16T02:19:24.352Z,14.70
2022-10-16T02:22:04.786Z,14.80
2022-10-16T02:24:34.987Z,14.23
2022-10-16T02:27:12.563Z,14.15
2022-10-16T02:29:50.955Z,13.25
2022-10-16T02:32:22.131Z,14.65
2022-10-16T02:34:51.719Z,13.90
2022-10-16T02:37:19.714Z,15.35
2022-10-16T02:39:46.563Z,15.40
2022-10-16T02:42:16.503Z,14.57
2022-10-16T02:44:43.560Z,16.55
2022-10-16T02:49:42.204Z,15.90
2022-10-16T02:52:09.017Z,15.75
2022-10-16T02:54:35.779Z,15.98
2022-10-16T02:57:02.540Z,16.20
2022-10-16T02:59:29.410Z,16.10
2022-10-16T03:01:56.156Z,16.05
2022-10-16T03:04:22.893Z,16.10
2022-10-16T03:06:50.206Z,17.30
2022-10-16T03:09:16.997Z,14.95
2022-10-16T03:11:43.766Z,13.52
2022-10-16T03:14:10.602Z,14.98
2022-10-16T03:16:37.417Z,14.40
2022-10-16T03:19:04.416Z,13.82
2022-10-16T03:21:31.348Z,13.65
2022-10-16T03:23:58.082Z,15.25
2022-10-16T03:26:24.850Z,14.82
2022-10-16T03:28:51.672Z,14.05
2022-10-16T03:31:18.545Z,14.52
2022-10-16T03:33:45.318Z,14.77
2022-10-16T03:36:12.110Z,14.85
2022-10-16T03:38:38.903Z,14.55
2022-10-16T03:41:05.961Z,15.68
2022-10-16T03:43:32.715Z,15.07
2022-10-16T03:45:59.639Z,15.20
2022-10-16T03:48:26.688Z,15.52
2022-10-16T03:50:53.655Z,15.35
2022-10-16T03:53:20.439Z,15.75
2022-10-16T03:55:47.269Z,16.60
2022-10-16T03:58:14.155Z,14.70
2022-10-16T04:00:45.113Z,15.32
2022-10-16T04:03:12.251Z,13.05
2022-10-16T04:05:40.631Z,13.75
2022-10-16T04:08:07.424Z,14.98
2022-10-16T04:10:34.260Z,13.95
2022-10-16T04:13:01.723Z,12.35
2022-10-16T04:15:28.570Z,13.52
2022-10-16T04:17:55.454Z,15.23
2022-10-16T04:20:22.300Z,14.35
2022-10-16T04:22:49.103Z,14.52
2022-10-16T04:25:15.897Z,15.48
2022-10-16T04:27:45.276Z,15.13
2022-10-16T04:30:13.082Z,15.13
2022-10-16T04:32:39.958Z,14.98
2022-10-16T04:35:07.890Z,16.38
2022-10-16T04:37:34.846Z,17.38
2022-10-16T04:40:01.680Z,15.30
2022-10-16T04:42:28.743Z,14.88
2022-10-16T04:44:55.532Z,15.93
2022-10-16T04:47:22.313Z,13.73
2022-10-16T04:49:49.113Z,15.55
2022-10-16T04:52:16.173Z,16.33
2022-10-16T04:54:42.969Z,16.08
2022-10-16T04:57:09.735Z,15.73
2022-10-16T04:59:36.916Z,15.15
2022-10-16T05:02:03.848Z,15.63
2022-10-16T05:04:30.624Z,16.70
2022-10-16T05:06:57.409Z,16.70
2022-10-16T05:09:24.293Z,14.63
2022-10-16T05:11:51.193Z,13.52
2022-10-16T05:14:18.188Z,14.23
2022-10-16T05:16:45.209Z,14.90
2022-10-16T05:19:28.417Z,15.07
2022-10-16T05:21:56.293Z,16.25
2022-10-16T05:24:23.069Z,14.85
2022-10-16T05:26:50.644Z,15.32
2022-10-16T05:29:17.463Z,17.00
2022-10-16T05:31:44.344Z,15.23
2022-10-16T05:34:11.180Z,15.73
2022-10-16T05:36:38.108Z,16.45
2022-10-16T05:39:04.891Z,16.88
2022-10-16T05:41:32.771Z,16.63
2022-10-16T05:43:59.677Z,16.60
2022-10-16T05:46:26.467Z,15.95
2022-10-16T05:48:54.327Z,16.42
2022-10-16T05:51:21.140Z,16.83
2022-10-16T05:53:50.591Z,16.17
2022-10-16T05:56:17.369Z,17.15
2022-10-16T05:58:45.528Z,19.75
2022-10-16T06:01:17.967Z,19.38
2022-10-16T06:03:45.153Z,20.08
2022-10-16T06:06:16.931Z,21.05
2022-10-16T06:08:46.255Z,18.90
2022-10-16T06:11:16.225Z,18.70
2022-10-16T06:13:43.632Z,18.88
2022-10-16T06:16:11.888Z,17.83
2022-10-16T06:18:39.093Z,16.50
2022-10-16T06:21:11.743Z,15.90
2022-10-16T06:23:38.907Z,15.55
2022-10-16T06:26:11.105Z,15.93
2022-10-16T06:28:39.000Z,16.40
2022-10-16T06:31:08.482Z,16.10
2022-10-16T06:33:36.403Z,17.05
2022-10-16T06:36:05.409Z,15.38
2022-10-16T06:38:33.058Z,16.48
2022-10-16T06:40:59.950Z,17.08
2022-10-16T06:43:27.643Z,17.17
2022-10-16T06:45:58.299Z,16.83
2022-10-16T06:48:25.673Z,17.80
2022-10-16T06:51:00.275Z,17.10
2022-10-16T06:53:29.380Z,17.33
2022-10-16T06:55:56.398Z,17.25
2022-10-16T06:58:23.254Z,16.95
2022-10-16T07:00:50.403Z,16.63
2022-10-16T07:03:17.218Z,16.55
2022-10-16T07:05:44.204Z,15.88
2022-10-16T07:08:11.051Z,16.17
2022-10-16T07:10:37.874Z,15.55
2022-10-16T07:13:04.665Z,15.38
2022-10-16T07:15:31.475Z,14.57
2022-10-16T07:17:58.237Z,15.15
2022-10-16T07:20:25.039Z,15.57
2022-10-16T07:22:52.133Z,14.70
2022-10-16T07:25:19.348Z,14.18
2022-10-16T07:27:46.244Z,13.27
2022-10-16T07:30:13.144Z,14.80
2022-10-16T07:32:39.903Z,15.23
2022-10-16T07:35:07.367Z,14.55
2022-10-16T07:37:34.196Z,14.02
2022-10-16T07:40:00.944Z,15.38
2022-10-16T07:42:28.688Z,13.95
2022-10-16T07:44:55.490Z,13.82
2022-10-16T07:47:22.513Z,15.02
2022-10-16T07:49:49.596Z,15.23
2022-10-16T07:52:16.567Z,13.90
2022-10-16T07:54:43.397Z,14.98
2022-10-16T07:57:10.244Z,14.15
2022-10-16T07:59:37.150Z,13.57
2022-10-16T08:02:04.002Z,13.75
2022-10-16T08:04:30.775Z,14.07
2022-10-16T08:06:57.790Z,14.52
2022-10-16T08:09:24.713Z,15.43
2022-10-16T08:11:52.790Z,15.07
2022-10-16T08:14:19.585Z,16.50
2022-10-16T08:16:46.388Z,14.65
2022-10-16T08:19:13.257Z,13.90
2022-10-16T08:21:40.093Z,15.43
2022-10-16T08:24:06.883Z,14.55
2022-10-16T08:26:33.687Z,13.25
2022-10-16T08:29:00.538Z,14.98
2022-10-16T08:31:28.217Z,14.48
2022-10-16T08:33:55.033Z,13.73
2022-10-16T08:36:22.005Z,13.88
2022-10-16T08:38:50.403Z,13.95
2022-10-16T08:41:51.152Z,13.43
2022-10-16T08:44:25.575Z,13.15
2022-10-16T08:47:34.215Z,12.70
2022-10-16T08:50:09.658Z,9.90
2022-10-16T08:52:40.292Z,11.15
2022-10-16T08:55:07.833Z,10.30
2022-10-16T08:57:34.689Z,9.82
2022-10-16T09:00:13.059Z,10.23
2022-10-16T09:02:57.677Z,10.32
2022-10-16T09:05:32.686Z,11.30
2022-10-16T09:08:21.288Z,11.45
2022-10-16T09:10:57.330Z,12.20
2022-10-16T09:13:43.732Z,12.52
2022-10-16T09:16:29.253Z,11.88
2022-10-16T09:19:19.385Z,12.45
2022-10-16T09:21:48.196Z,11.98
2022-10-16T09:24:14.891Z,11.73
2022-10-16T09:26:42.397Z,13.40
2022-10-16T09:29:17.713Z,13.20
2022-10-16T09:31:44.483Z,15.45
2022-10-16T09:34:20.446Z,15.13
2022-10-16T09:36:48.047Z,12.07
2022-10-16T09:39:14.899Z,12.32
2022-10-16T09:41:45.804Z,13.35
2022-10-16T09:44:32.834Z,13.95
2022-10-16T09:47:24.013Z,12.70
2022-10-16T09:50:07.159Z,11.70
2022-10-16T09:52:34.431Z,12.40
2022-10-16T09:55:15.766Z,11.57
2022-10-16T09:57:55.665Z,12.32
2022-10-16T10:00:24.554Z,12.38
2022-10-16T10:02:52.488Z,11.07
2022-10-16T10:05:27.185Z,10.88
2022-10-16T10:08:06.911Z,13.43
2022-10-16T10:10:39.562Z,12.68
2022-10-16T10:13:21.479Z,10.70
2022-10-16T10:15:48.436Z,10.82
2022-10-16T10:18:23.995Z,11.80
2022-10-16T10:21:00.217Z,11.45
2022-10-16T10:23:28.858Z,8.27
2022-10-16T10:26:14.640Z,10.52
2022-10-16T10:29:14.214Z,9.90
2022-10-16T10:31:47.494Z,12.63
2022-10-16T10:34:54.260Z,12.93
2022-10-16T10:37:59.968Z,8.70
2022-10-16T10:40:45.841Z,10.10
2022-10-16T10:43:30.524Z,8.48
2022-10-16T10:46:04.684Z,8.38
2022-10-16T10:49:11.956Z,10.07
2022-10-16T10:52:03.837Z,6.40
2022-10-16T10:54:50.982Z,9.57
2022-10-16T10:57:23.886Z,11.43
2022-10-16T11:00:03.961Z,14.15
2022-10-16T11:02:30.727Z,13.18
2022-10-16T11:05:20.838Z,9.85
2022-10-16T11:07:58.299Z,11.40
2022-10-16T11:10:54.707Z,12.23
2022-10-16T11:13:30.684Z,7.80
2022-10-16T11:16:08.100Z,11.90
2022-10-16T11:18:51.214Z,9.18
2022-10-16T11:21:21.919Z,9.38
2022-10-16T11:23:57.720Z,12.25
2022-10-16T11:26:31.777Z,7.68
2022-10-16T11:29:00.385Z,9.38
2022-10-16T11:31:44.936Z,12.10
2022-10-16T11:34:35.687Z,9.40
2022-10-16T11:37:20.762Z,10.77
2022-10-16T11:39:48.411Z,5.90
2022-10-16T11:42:31.928Z,11.95
2022-10-16T11:45:23.595Z,9.30
2022-10-16T11:48:01.980Z,6.93
2022-10-16T11:50:44.298Z,9.27
2022-10-16T11:53:29.508Z,8.93
2022-10-16T11:55:56.284Z,12.18
2022-10-16T11:59:01.885Z,7.25
2022-10-16T12:01:44.241Z,10.55
2022-10-16T12:04:25.082Z,10.07
2022-10-16T12:06:51.788Z,9.45
2022-10-16T12:09:25.733Z,11.32
2022-10-16T12:11:52.569Z,8.52
2022-10-16T12:14:23.039Z,7.57
2022-10-16T12:16:54.589Z,14.07
2022-10-16T12:19:22.697Z,9.65
2022-10-16T12:21:50.908Z,13.73
2022-10-16T12:24:43.289Z,7.70
2022-10-16T12:27:33.157Z,11.35
2022-10-16T12:30:07.183Z,12.82
2022-10-16T12:32:46.678Z,12.98
2022-10-16T12:35:31.097Z,9.55
2022-10-16T12:38:22.476Z,8.73
2022-10-16T12:41:05.731Z,8.10
2022-10-16T12:43:47.766Z,9.00
2022-10-16T12:46:14.471Z,9.45
2022-10-16T12:48:49.154Z,8.30
2022-10-16T12:51:28.880Z,7.28
2022-10-16T12:54:32.618Z,7.97
2022-10-16T12:57:30.625Z,8.20
2022-10-16T13:00:32.247Z,10.93
2022-10-16T13:03:17.878Z,8.60
2022-10-16T13:06:06.209Z,8.43
2022-10-16T13:09:04.381Z,8.95
2022-10-16T13:11:34.066Z,10.73
2022-10-16T13:14:41.852Z,12.05
2022-10-16T13:17:20.769Z,7.60
2022-10-16T13:19:56.825Z,9.18
2022-10-16T13:22:29.469Z,11.30
2022-10-16T13:25:19.874Z,12.50
2022-10-16T13:27:57.198Z,10.80
2022-10-16T13:30:32.744Z,8.88
2022-10-16T13:33:04.064Z,11.55
2022-10-16T13:35:33.442Z,8.07
2022-10-16T13:38:16.240Z,8.65
2022-10-16T13:40:56.342Z,8.32
2022-10-16T13:43:35.169Z,9.95
2022-10-16T13:46:05.312Z,11.77
2022-10-16T13:48:34.103Z,7.05
2022-10-16T13:51:03.919Z,13.63
2022-10-16T13:53:37.286Z,7.80
2022-10-16T13:56:07.602Z,9.52
2022-10-16T13:58:34.698Z,10.55
2022-10-16T14:01:06.502Z,11.40
2022-10-16T14:03:35.790Z,10.30
2022-10-16T14:06:13.030Z,10.57
2022-10-16T14:08:44.568Z,9.43
2022-10-16T14:11:11.817Z,9.57
2022-10-16T14:13:43.880Z,8.25
2022-10-16T14:16:18.821Z,10.55
2022-10-16T14:21:24.093Z,13.27
2022-10-16T14:23:51.086Z,9.65
2022-10-16T14:26:21.174Z,10.75
2022-10-16T14:28:50.204Z,8.70
2022-10-16T14:31:27.890Z,14.82
2022-10-16T14:33:55.207Z,13.48
2022-10-16T14:36:23.445Z,10.13
2022-10-16T14:39:17.541Z,10.00
2022-10-16T14:41:50.167Z,12.05
2022-10-16T14:44:20.404Z,13.85
2022-10-16T14:46:48.045Z,11.70
2022-10-16T14:49:20.830Z,8.95
2022-10-16T14:51:48.698Z,10.20
2022-10-16T14:54:17.807Z,8.88
2022-10-16T14:56:53.585Z,12.80
2022-10-16T14:59:30.190Z,14.18
2022-10-16T15:01:57.295Z,11.07
2022-10-16T15:04:27.090Z,11.80
2022-10-16T15:06:54.008Z,11.30
2022-10-16T15:09:20.836Z,10.90
2022-10-16T15:11:48.516Z,11.77
2022-10-16T15:16:47.380Z,13.25
2022-10-16T15:19:14.160Z,13.52
2022-10-16T15:21:41.253Z,13.75
2022-10-16T15:24:15.338Z,14.25
2022-10-16T15:26:46.957Z,15.65
2022-10-16T15:29:14.058Z,16.60
2022-10-16T15:31:43.520Z,14.93
2022-10-16T15:34:11.274Z,17.30
2022-10-16T15:36:39.681Z,19.83
2022-10-16T15:39:14.873Z,18.73
2022-10-16T15:41:42.511Z,18.83
2022-10-16T15:44:09.717Z,20.92
2022-10-16T15:46:38.178Z,20.85
2022-10-16T15:49:05.371Z,21.30
2022-10-16T15:51:34.128Z,20.75
2022-10-16T15:54:02.840Z,20.33
2022-10-16T15:56:30.296Z,21.85
2022-10-16T15:58:59.292Z,22.63
2022-10-16T16:01:26.516Z,20.65
2022-10-16T16:03:54.406Z,22.33
2022-10-16T16:06:22.161Z,25.55
2022-10-16T16:08:49.210Z,27.25
2022-10-16T16:11:17.228Z,26.90
2022-10-16T16:13:44.259Z,27.45
2022-10-16T16:16:16.080Z,26.90
2022-10-16T16:18:43.910Z,27.75
2022-10-16T16:21:14.230Z,27.77
2022-10-16T16:23:41.015Z,28.80
2022-10-16T16:26:16.751Z,28.67
2022-10-16T16:28:44.455Z,30.55
2022-10-16T16:31:11.419Z,31.58
2022-10-16T16:33:38.420Z,33.30
2022-10-16T16:36:11.529Z,32.53
2022-10-16T16:38:39.919Z,34.72
2022-10-16T16:41:17.403Z,33.70
2022-10-16T16:43:44.257Z,33.22
2022-10-16T16:46:11.219Z,30.45
2022-10-16T16:48:39.032Z,32.35
2022-10-16T16:51:10.740Z,28.67
2022-10-16T16:53:37.697Z,30.30
2022-10-16T16:56:06.332Z,29.42
2022-10-16T16:58:33.663Z,28.58
2022-10-16T17:01:19.294Z,26.20
2022-10-16T17:03:46.790Z,29.23
2022-10-16T17:06:15.375Z,32.80
2022-10-16T17:08:43.365Z,34.30
2022-10-16T17:11:19.141Z,34.33
2022-10-16T17:13:46.444Z,32.33
2022-10-16T17:16:13.431Z,31.98
2022-10-16T17:18:41.151Z,34.50
2022-10-16T17:21:09.726Z,33.67
2022-10-16T17:23:37.972Z,32.40
2022-10-16T17:26:11.118Z,32.42
2022-10-16T17:28:38.188Z,33.13
2022-10-16T17:31:19.908Z,34.53
2022-10-16T17:33:46.974Z,44.85
2022-10-16T17:36:15.043Z,44.25
2022-10-16T17:38:42.945Z,45.70
2022-10-16T17:41:18.981Z,42.33
2022-10-16T17:43:46.311Z,41.10
2022-10-16T17:46:15.291Z,41.88
2022-10-16T17:48:45.481Z,39.53
2022-10-16T17:51:14.665Z,37.42
2022-10-16T17:53:41.596Z,36.15
2022-10-16T17:56:11.111Z,30.73
2022-10-16T17:58:38.558Z,29.85
2022-10-16T18:01:17.249Z,30.45
2022-10-16T18:03:44.226Z,31.10
2022-10-16T18:06:13.519Z,29.48
2022-10-16T18:08:40.472Z,31.55
2022-10-16T18:11:07.327Z,32.17
2022-10-16T18:13:34.131Z,31.55
2022-10-16T18:16:09.892Z,29.58
2022-10-16T18:18:37.838Z,32.10
2022-10-16T18:21:06.942Z,30.58
2022-10-16T18:23:35.704Z,30.17
2022-10-16T18:26:04.148Z,31.02
2022-10-16T18:28:31.257Z,32.42
2022-10-16T18:31:04.829Z,28.00
2022-10-16T18:33:32.452Z,29.20
2022-10-16T18:36:08.072Z,27.42
2022-10-16T18:38:36.697Z,27.38
2022-10-16T18:41:07.268Z,29.42
2022-10-16T18:43:35.391Z,26.48
2022-10-16T18:46:08.219Z,26.23
2022-10-16T18:48:35.324Z,26.65
2022-10-16T18:51:17.323Z,27.23
2022-10-16T18:53:46.118Z,28.85
2022-10-16T18:56:15.961Z,27.58
2022-10-16T18:58:44.775Z,24.50
2022-10-16T19:01:17.569Z,25.77
2022-10-16T19:03:44.828Z,29.38
2022-10-16T19:06:14.592Z,27.00
2022-10-16T19:08:42.322Z,26.67
2022-10-16T19:11:12.213Z,26.48
2022-10-16T19:13:39.592Z,26.05
2022-10-16T19:16:20.977Z,25.95
2022-10-16T19:18:49.962Z,29.17
2022-10-16T19:21:17.780Z,28.92
2022-10-16T19:23:44.899Z,25.02
2022-10-16T19:26:14.486Z,26.10
2022-10-16T19:28:42.060Z,27.75
2022-10-16T19:31:12.030Z,30.13
2022-10-16T19:33:40.395Z,27.27
2022-10-16T19:36:18.404Z,27.15
2022-10-16T19:38:46.633Z,30.20
2022-10-16T19:41:18.539Z,29.20
2022-10-16T19:43:45.902Z,28.00
2022-10-16T19:46:18.982Z,28.30
2022-10-16T19:48:46.537Z,27.45
2022-10-16T19:51:16.373Z,26.20
2022-10-16T19:53:44.052Z,27.52
2022-10-16T19:56:21.803Z,29.27
2022-10-16T19:58:49.375Z,28.20
2022-10-16T20:01:17.096Z,28.48
2022-10-16T20:03:44.918Z,29.58
2022-10-16T20:06:12.474Z,27.77
2022-10-16T20:08:41.305Z,27.67
2022-10-16T20:11:20.282Z,25.98
2022-10-16T20:13:47.136Z,26.67
2022-10-16T20:16:16.045Z,25.38
2022-10-16T20:18:42.857Z,26.42
2022-10-16T20:21:14.723Z,25.38
2022-10-16T20:23:42.300Z,27.35
2022-10-16T20:26:11.523Z,28.25
2022-10-16T20:28:42.664Z,27.85
2022-10-16T20:31:20.643Z,26.58
2022-10-16T20:33:47.535Z,29.30
2022-10-16T20:36:16.445Z,27.88
2022-10-16T20:38:43.674Z,27.75
2022-10-16T20:41:12.083Z,26.27
2022-10-16T20:43:44.550Z,27.35
2022-10-16T20:46:13.580Z,27.90
2022-10-16T20:48:44.716Z,28.20
2022-10-16T20:51:20.173Z,25.35
2022-10-16T20:53:48.707Z,24.73
2022-10-16T20:56:17.425Z,26.08
2022-10-16T20:58:45.580Z,26.23
2022-10-16T21:01:15.268Z,25.73
2022-10-16T21:03:42.960Z,26.00
2022-10-16T21:06:11.385Z,21.08
2022-10-16T21:08:41.399Z,22.20
2022-10-16T21:11:25.697Z,24.80
2022-10-16T21:13:54.320Z,26.77
2022-10-16T21:16:21.977Z,27.05
2022-10-16T21:18:49.156Z,27.08
2022-10-16T21:21:24.371Z,26.15
2022-10-16T21:23:52.426Z,27.42
2022-10-16T21:26:26.417Z,28.67
2022-10-16T21:28:58.258Z,26.23
2022-10-16T21:31:25.189Z,27.25
2022-10-16T21:33:52.833Z,22.48
2022-10-16T21:36:25.251Z,26.10
2022-10-16T21:38:52.538Z,29.52
2022-10-16T21:41:19.374Z,28.17
2022-10-16T21:43:46.884Z,28.52
2022-10-16T21:46:14.670Z,29.25
2022-10-16T21:48:43.115Z,30.45
2022-10-16T21:51:11.298Z,30.08
2022-10-16T21:53:38.313Z,30.52
2022-10-16T21:56:11.853Z,30.10
2022-10-16T21:58:38.715Z,28.13
2022-10-16T22:01:16.987Z,28.30
2022-10-16T22:03:45.349Z,29.88
2022-10-16T22:06:13.960Z,27.15
2022-10-16T22:08:41.257Z,29.52
2022-10-16T22:11:20.241Z,30.05
2022-10-16T22:13:51.258Z,26.83
2022-10-16T22:16:22.658Z,27.30
2022-10-16T22:18:52.426Z,26.17
2022-10-16T22:21:19.257Z,26.38
2022-10-16T22:23:46.904Z,28.35
2022-10-16T22:26:13.814Z,30.38
2022-10-16T22:28:41.649Z,31.08
2022-10-16T22:31:11.088Z,28.73
2022-10-16T22:33:38.432Z,28.95
2022-10-16T22:36:07.510Z,30.17
2022-10-16T22:38:35.885Z,27.40
2022-10-16T22:41:04.329Z,26.73
2022-10-16T22:43:31.644Z,29.40
2022-10-16T22:46:07.658Z,29.75
2022-10-16T22:48:35.310Z,29.75
2022-10-16T22:51:02.810Z,28.77
2022-10-16T22:53:29.650Z,28.52
2022-10-16T22:55:56.569Z,28.27
2022-10-16T22:58:23.380Z,28.10
2022-10-16T23:00:50.329Z,26.73
2022-10-16T23:03:17.494Z,27.67
2022-10-16T23:05:45.179Z,28.88
2022-10-16T23:08:14.291Z,25.90
2022-10-16T23:10:43.407Z,23.52
2022-10-16T23:13:10.293Z,24.90
2022-10-16T23:15:44.544Z,25.38
2022-10-16T23:18:12.034Z,25.50
2022-10-16T23:20:40.965Z,26.08
2022-10-16T23:23:08.402Z,23.60
2022-10-16T23:25:36.315Z,25.27
2022-10-16T23:28:03.849Z,24.75
2022-10-16T23:30:30.686Z,24.40
2022-10-16T23:32:57.469Z,24.15
2022-10-16T23:35:24.228Z,24.58
2022-10-16T23:37:51.529Z,23.55
2022-10-16T23:40:18.986Z,23.38
2022-10-16T23:42:45.768Z,24.55
2022-10-16T23:45:12.522Z,24.60
2022-10-16T23:47:41.441Z,24.65
2022-10-16T23:50:09.515Z,21.48
2022-10-16T23:52:36.309Z,25.80
2022-10-16T23:55:03.531Z,23.65
2022-10-16T23:57:30.685Z,25.50
2022-10-16T23:59:57.869Z,22.83
